createdAt,value
2023-01-12T00:00:13.700Z,-9.37
2023-01-12T00:02:42.772Z,-9.41
2023-01-12T00:05:11.763Z,-9.43
2023-01-12T00:07:40.896Z,-9.42
2023-01-12T00:10:10.734Z,-9.40
2023-01-12T00:12:39.707Z,-9.36
2023-01-12T00:15:11.605Z,-9.40
2023-01-12T00:17:40.757Z,-9.42
2023-01-12T00:20:11.430Z,-9.39
2023-01-12T00:22:40.410Z,-9.36
2023-01-12T00:25:09.877Z,-9.36
2023-01-12T00:27:38.949Z,-9.35
2023-01-12T00:30:13.252Z,-9.33
2023-01-12T00:32:42.212Z,-9.39
2023-01-12T00:35:11.377Z,-9.37
2023-01-12T00:37:40.569Z,-9.39
2023-01-12T00:40:11.931Z,-9.39
2023-01-12T00:42:59.520Z,-9.36
2023-01-12T00:45:30.368Z,-9.38
2023-01-12T00:47:59.384Z,-9.41
2023-01-12T00:50:28.303Z,-9.46
2023-01-12T00:52:57.260Z,-9.47
2023-01-12T00:55:26.263Z,-9.48
2023-01-12T00:57:55.451Z,-9.48
2023-01-12T01:00:24.743Z,-9.49
2023-01-12T01:02:55.502Z,-9.48
2023-01-12T01:05:24.450Z,-9.43
2023-01-12T01:07:53.537Z,-9.46
2023-01-12T01:10:22.502Z,-9.46
2023-01-12T01:12:52.060Z,-9.48
2023-01-12T01:15:21.054Z,-9.42
2023-01-12T01:17:50.077Z,-9.42
2023-01-12T01:20:21.851Z,-9.39
2023-01-12T01:22:50.903Z,-9.39
2023-01-12T01:25:19.898Z,-9.39
2023-01-12T01:27:48.985Z,-9.38
2023-01-12T01:30:18.475Z,-9.40
2023-01-12T01:32:47.414Z,-9.37
2023-01-12T01:35:16.531Z,-9.39
2023-01-12T01:37:46.991Z,-9.37
2023-01-12T01:40:16.032Z,-9.38
2023-01-12T01:42:45.079Z,-9.39
2023-01-12T01:45:16.972Z,-9.36
2023-01-12T01:47:49.603Z,-9.41
2023-01-12T01:50:21.313Z,-9.39
2023-01-12T01:52:54.498Z,-9.39
2023-01-12T01:55:26.414Z,-9.36
2023-01-12T01:58:00.175Z,-9.31
2023-01-12T02:00:29.577Z,-9.34
2023-01-12T02:03:00.985Z,-9.34
2023-01-12T02:05:30.403Z,-9.37
2023-01-12T02:08:06.726Z,-9.37
2023-01-12T02:10:36.001Z,-9.37
2023-01-12T02:13:33.795Z,-9.37
2023-01-12T02:16:25.697Z,-9.40
2023-01-12T02:19:06.714Z,-9.42
2023-01-12T02:22:10.901Z,-9.39
2023-01-12T02:25:03.513Z,-9.37
2023-01-12T02:27:44.332Z,-9.41
2023-01-12T02:30:42.006Z,-9.35
2023-01-12T02:33:23.849Z,-9.41
2023-01-12T02:36:03.162Z,-9.38
2023-01-12T02:38:38.660Z,-9.39
2023-01-12T02:41:17.840Z,-9.39
2023-01-12T02:43:46.475Z,-9.39
2023-01-12T02:46:22.494Z,-9.40
2023-01-12T02:48:57.261Z,-9.40
2023-01-12T02:51:32.527Z,-9.42
2023-01-12T02:54:06.077Z,-9.46
2023-01-12T02:56:39.900Z,-9.49
2023-01-12T02:59:13.308Z,-9.50
2023-01-12T03:01:43.733Z,-9.48
2023-01-12T03:04:15.727Z,-9.45
2023-01-12T03:06:47.391Z,-9.46
2023-01-12T03:09:19.839Z,-9.51
2023-01-12T03:11:51.836Z,-9.51
2023-01-12T03:14:23.866Z,-9.47
2023-01-12T03:16:55.439Z,-9.47
2023-01-12T03:19:31.709Z,-9.51
2023-01-12T03:22:04.148Z,-9.49
2023-01-12T03:24:38.105Z,-9.48
2023-01-12T03:27:11.239Z,-9.47
2023-01-12T03:29:46.049Z,-9.47
2023-01-12T03:32:15.207Z,-9.49
2023-01-12T03:34:46.711Z,-9.49
2023-01-12T03:37:24.765Z,-9.47
2023-01-12T03:40:01.928Z,-9.44
2023-01-12T03:42:39.710Z,-9.41
2023-01-12T03:45:21.738Z,-9.42
2023-01-12T03:47:55.685Z,-9.35
2023-01-12T03:50:32.008Z,-9.31
2023-01-12T03:53:03.575Z,-9.29
2023-01-12T03:55:34.168Z,-9.34
2023-01-12T03:58:04.150Z,-9.32
2023-01-12T04:00:33.341Z,-9.33
2023-01-12T04:03:09.548Z,-9.32
2023-01-12T04:05:42.064Z,-9.30
2023-01-12T04:08:12.142Z,-9.32
2023-01-12T04:10:41.107Z,-9.30
2023-01-12T04:13:09.074Z,-9.28
2023-01-12T04:15:42.672Z,-9.35
2023-01-12T04:18:13.190Z,-9.41
2023-01-12T04:20:43.652Z,-9.40
2023-01-12T04:23:11.615Z,-9.32
2023-01-12T04:25:40.538Z,-9.29
2023-01-12T04:28:09.662Z,-9.26
2023-01-12T04:30:38.593Z,-9.25
2023-01-12T04:33:09.580Z,-9.27
2023-01-12T04:35:38.583Z,-9.26
2023-01-12T04:38:09.792Z,-9.26
2023-01-12T04:40:38.931Z,-9.23
2023-01-12T04:43:08.864Z,-9.23
2023-01-12T04:45:39.423Z,-9.22
2023-01-12T04:48:14.247Z,-9.23
2023-01-12T04:50:44.658Z,-9.24
2023-01-12T04:53:15.013Z,-9.26
2023-01-12T04:55:44.788Z,-9.12
2023-01-12T04:58:13.760Z,-9.14
2023-01-12T05:00:42.924Z,-9.24
2023-01-12T05:03:13.222Z,-9.36
2023-01-12T05:05:42.785Z,-9.37
2023-01-12T05:08:29.499Z,-9.40
2023-01-12T05:11:01.623Z,-9.42
2023-01-12T05:13:32.577Z,-9.46
2023-01-12T05:16:10.172Z,-9.49
2023-01-12T05:18:39.430Z,-9.42
2023-01-12T05:21:08.852Z,-9.38
2023-01-12T05:23:37.971Z,-9.38
2023-01-12T05:26:08.455Z,-9.41
2023-01-12T05:28:37.791Z,-9.45
2023-01-12T05:31:09.537Z,-9.46
2023-01-12T05:33:40.352Z,-9.43
2023-01-12T05:36:11.994Z,-9.50
2023-01-12T05:38:41.454Z,-9.45
2023-01-12T05:41:14.585Z,-9.41
2023-01-12T05:43:53.014Z,-9.37
2023-01-12T05:46:24.257Z,-9.38
2023-01-12T05:48:54.633Z,-9.37
2023-01-12T05:51:24.893Z,-9.38
2023-01-12T05:53:55.581Z,-9.36
2023-01-12T05:56:27.708Z,-9.41
2023-01-12T05:58:58.950Z,-9.44
2023-01-12T06:01:28.936Z,-9.46
2023-01-12T06:04:00.308Z,-9.48
2023-01-12T06:06:31.882Z,-9.48
2023-01-12T06:09:01.814Z,-9.46
2023-01-12T06:11:49.793Z,-9.44
2023-01-12T06:14:19.556Z,-9.41
2023-01-12T06:16:48.613Z,-9.39
2023-01-12T06:19:17.649Z,-9.38
2023-01-12T06:21:46.583Z,-9.38
2023-01-12T06:24:15.531Z,-9.46
2023-01-12T06:26:46.535Z,-9.55
2023-01-12T06:29:15.538Z,-9.53
2023-01-12T06:31:44.917Z,-9.57
2023-01-12T06:34:13.909Z,-9.62
2023-01-12T06:36:43.152Z,-9.63
2023-01-12T06:39:13.501Z,-9.72
2023-01-12T06:41:59.736Z,-9.74
2023-01-12T06:44:30.111Z,-9.71
2023-01-12T06:46:59.565Z,-9.70
2023-01-12T06:49:28.911Z,-9.73
2023-01-12T06:51:58.072Z,-9.71
2023-01-12T06:54:27.282Z,-9.69
2023-01-12T06:56:56.602Z,-9.69
2023-01-12T06:59:25.574Z,-9.66
2023-01-12T07:01:56.088Z,-9.69
2023-01-12T07:04:25.926Z,-9.68
2023-01-12T07:06:56.341Z,-9.68
2023-01-12T07:09:25.514Z,-9.65
2023-01-12T07:11:54.504Z,-9.68
2023-01-12T07:14:23.506Z,-9.63
2023-01-12T07:16:53.142Z,-9.65
2023-01-12T07:19:24.008Z,-9.62
2023-01-12T07:21:52.954Z,-9.59
2023-01-12T07:24:22.024Z,-9.61
2023-01-12T07:26:51.156Z,-9.68
2023-01-12T07:29:20.180Z,-9.66
2023-01-12T07:31:50.127Z,-9.63
2023-01-12T07:34:26.509Z,-9.66
2023-01-12T07:36:55.496Z,-9.55
2023-01-12T07:39:24.839Z,-9.38
2023-01-12T07:42:11.422Z,-9.45
2023-01-12T07:44:40.604Z,-9.52
2023-01-12T07:47:09.680Z,-9.63
2023-01-12T07:49:40.083Z,-9.62
2023-01-12T07:52:11.921Z,-9.59
2023-01-12T07:54:41.582Z,-9.63
2023-01-12T07:57:12.548Z,-9.62
2023-01-12T07:59:41.683Z,-9.63
2023-01-12T08:02:16.683Z,-9.59
2023-01-12T08:04:47.924Z,-9.60
2023-01-12T08:07:17.111Z,-9.59
2023-01-12T08:09:46.643Z,-9.55
2023-01-12T08:12:15.587Z,-9.66
2023-01-12T08:14:44.638Z,-9.67
2023-01-12T08:17:20.295Z,-9.64
2023-01-12T08:19:55.503Z,-9.66
2023-01-12T08:22:29.426Z,-9.64
2023-01-12T08:25:02.869Z,-9.61
2023-01-12T08:27:35.691Z,-9.65
2023-01-12T08:30:08.420Z,-9.66
2023-01-12T08:32:39.171Z,-9.52
2023-01-12T08:35:10.683Z,-9.42
2023-01-12T08:37:39.610Z,-9.49
2023-01-12T08:40:10.344Z,-9.46
2023-01-12T08:42:39.462Z,-9.53
2023-01-12T08:45:09.876Z,-9.43
2023-01-12T08:47:40.860Z,-9.36
2023-01-12T08:50:12.312Z,-9.37
2023-01-12T08:52:41.415Z,-9.38
2023-01-12T08:55:12.141Z,-9.32
2023-01-12T08:57:42.452Z,-9.25
2023-01-12T09:00:12.742Z,-9.21
2023-01-12T09:02:41.832Z,-9.18
2023-01-12T09:05:12.482Z,-9.19
2023-01-12T09:07:43.085Z,-9.14
2023-01-12T09:10:12.389Z,-8.97
2023-01-12T09:12:42.191Z,-8.88
2023-01-12T09:15:12.413Z,-8.82
2023-01-12T09:17:41.503Z,-8.86
2023-01-12T09:20:13.143Z,-8.85
2023-01-12T09:22:42.094Z,-8.77
2023-01-12T09:25:11.129Z,-8.88
2023-01-12T09:27:40.203Z,-8.91
2023-01-12T09:30:10.789Z,-8.85
2023-01-12T09:32:39.753Z,-8.80
2023-01-12T09:35:09.468Z,-8.85
2023-01-12T09:37:43.156Z,-8.86
2023-01-12T09:40:16.015Z,-8.81
2023-01-12T09:43:07.998Z,-8.86
2023-01-12T09:45:54.380Z,-8.95
2023-01-12T09:48:24.906Z,-8.89
2023-01-12T09:50:59.073Z,-8.76
2023-01-12T09:53:34.828Z,-8.61
2023-01-12T09:56:15.495Z,-8.53
2023-01-12T09:59:04.209Z,-8.40
2023-01-12T10:01:33.352Z,-8.34
2023-01-12T10:04:03.780Z,-8.37
2023-01-12T10:06:33.366Z,-8.36
2023-01-12T10:09:05.851Z,-8.41
2023-01-12T10:11:43.094Z,-8.41
2023-01-12T10:14:44.854Z,-8.33
2023-01-12T10:17:27.858Z,-8.34
2023-01-12T10:20:05.909Z,-8.35
2023-01-12T10:22:41.656Z,-8.29
2023-01-12T10:25:24.573Z,-8.21
2023-01-12T10:27:55.661Z,-8.12
2023-01-12T10:30:30.389Z,-8.04
2023-01-12T10:33:00.133Z,-8.06
2023-01-12T10:35:29.283Z,-7.95
2023-01-12T10:37:58.270Z,-7.89
2023-01-12T10:40:31.446Z,-7.90
2023-01-12T10:43:22.575Z,-7.93
2023-01-12T10:46:12.118Z,-8.03
2023-01-12T10:48:43.937Z,-7.95
2023-01-12T10:51:28.200Z,-7.87
2023-01-12T10:54:01.596Z,-7.79
2023-01-12T10:56:36.631Z,-7.87
2023-01-12T10:59:16.961Z,-7.87
2023-01-12T11:01:48.622Z,-7.90
2023-01-12T11:04:22.892Z,-7.81
2023-01-12T11:07:04.073Z,-7.97
2023-01-12T11:09:34.195Z,-7.92
2023-01-12T11:12:07.699Z,-7.80
2023-01-12T11:14:38.604Z,-7.93
2023-01-12T11:17:33.136Z,-7.95
2023-01-12T11:20:04.173Z,-7.96
2023-01-12T11:22:38.675Z,-8.00
2023-01-12T11:25:13.586Z,-7.99
2023-01-12T11:27:47.679Z,-8.08
2023-01-12T11:30:21.573Z,-8.19
2023-01-12T11:32:56.602Z,-8.24
2023-01-12T11:35:35.004Z,-8.25
2023-01-12T11:38:11.638Z,-8.20
2023-01-12T11:40:42.901Z,-8.25
2023-01-12T11:43:55.928Z,-8.32
2023-01-12T11:46:29.976Z,-8.36
2023-01-12T11:49:08.529Z,-8.40
2023-01-12T11:51:38.016Z,-8.37
2023-01-12T11:54:08.751Z,-8.24
2023-01-12T11:56:58.306Z,-8.11
2023-01-12T11:59:38.565Z,-8.39
2023-01-12T12:02:22.945Z,-8.50
2023-01-12T12:05:04.848Z,-8.64
2023-01-12T12:07:46.327Z,-8.76
2023-01-12T12:10:24.046Z,-8.84
2023-01-12T12:13:24.453Z,-8.89
2023-01-12T12:16:05.659Z,-8.94
2023-01-12T12:18:52.008Z,-8.99
2023-01-12T12:21:37.532Z,-9.03
2023-01-12T12:24:13.359Z,-9.09
2023-01-12T12:26:45.404Z,-9.13
2023-01-12T12:29:30.884Z,-9.18
2023-01-12T12:32:08.632Z,-9.23
2023-01-12T12:34:57.783Z,-9.29
2023-01-12T12:37:42.409Z,-9.38
2023-01-12T12:40:21.994Z,-9.42
2023-01-12T12:43:22.600Z,-9.51
2023-01-12T12:45:57.829Z,-9.64
2023-01-12T12:48:40.183Z,-9.75
2023-01-12T12:51:10.371Z,-9.79
2023-01-12T12:53:42.978Z,-9.86
2023-01-12T12:56:14.430Z,-9.91
2023-01-12T12:58:47.885Z,-9.97
2023-01-12T13:01:43.029Z,-10.08
2023-01-12T13:04:15.293Z,-10.14
2023-01-12T13:06:47.936Z,-10.19
2023-01-12T13:09:40.340Z,-10.21
2023-01-12T13:12:32.332Z,-10.26
2023-01-12T13:15:26.464Z,-10.35
2023-01-12T13:17:56.870Z,-10.38
2023-01-12T13:20:50.817Z,-10.42
2023-01-12T13:23:56.506Z,-10.40
2023-01-12T13:26:46.421Z,-10.47
2023-01-12T13:29:44.600Z,-10.58
2023-01-12T13:32:50.413Z,-10.64
2023-01-12T13:35:55.805Z,-10.69
2023-01-12T13:38:54.153Z,-10.78
2023-01-12T13:41:44.335Z,-10.81
2023-01-12T13:44:22.195Z,-10.84
2023-01-12T13:46:54.649Z,-10.86
2023-01-12T13:49:32.287Z,-10.89
2023-01-12T13:52:03.542Z,-10.84
2023-01-12T13:54:34.832Z,-10.87
2023-01-12T13:57:06.715Z,-10.92
2023-01-12T13:59:37.998Z,-10.89
2023-01-12T14:02:19.505Z,-10.92
2023-01-12T14:05:06.597Z,-10.96
2023-01-12T14:07:50.510Z,-10.97
2023-01-12T14:10:34.634Z,-10.97
2023-01-12T14:13:27.695Z,-10.98
2023-01-12T14:16:30.163Z,-11.05
2023-01-12T14:18:59.162Z,-10.93
2023-01-12T14:21:32.925Z,-10.94
2023-01-12T14:24:16.936Z,-10.91
2023-01-12T14:26:47.923Z,-10.98
2023-01-12T14:29:16.953Z,-11.07
2023-01-12T14:31:49.124Z,-11.16
2023-01-12T14:34:27.937Z,-11.20
2023-01-12T14:36:57.601Z,-11.13
2023-01-12T14:39:28.982Z,-11.08
2023-01-12T14:42:17.075Z,-11.10
2023-01-12T14:45:09.404Z,-11.09
2023-01-12T14:47:39.004Z,-11.13
2023-01-12T14:50:19.391Z,-11.10
2023-01-12T14:52:53.413Z,-11.04
2023-01-12T14:55:29.616Z,-10.99
2023-01-12T14:58:02.348Z,-10.94
2023-01-12T15:00:35.125Z,-10.95
2023-01-12T15:03:07.917Z,-10.91
2023-01-12T15:05:37.609Z,-10.88
2023-01-12T15:08:26.903Z,-10.86
2023-01-12T15:11:00.996Z,-10.88
2023-01-12T15:13:33.129Z,-10.95
2023-01-12T15:16:21.414Z,-10.98
2023-01-12T15:19:08.030Z,-10.98
2023-01-12T15:21:56.170Z,-11.02
2023-01-12T15:24:45.817Z,-11.05
2023-01-12T15:27:16.921Z,-11.01
2023-01-12T15:29:50.783Z,-11.02
2023-01-12T15:32:27.673Z,-11.04
2023-01-12T15:35:02.172Z,-11.10
2023-01-12T15:37:33.154Z,-11.13
2023-01-12T15:40:02.904Z,-11.15
2023-01-12T15:42:33.046Z,-11.22
2023-01-12T15:45:03.799Z,-11.23
2023-01-12T15:47:34.456Z,-11.23
2023-01-12T15:50:04.148Z,-11.24
2023-01-12T15:52:34.266Z,-11.24
2023-01-12T15:55:05.737Z,-11.28
2023-01-12T15:57:38.533Z,-11.28
2023-01-12T16:00:12.874Z,-11.26
2023-01-12T16:02:45.225Z,-11.24
2023-01-12T16:05:15.309Z,-11.23
2023-01-12T16:07:47.488Z,-11.15
2023-01-12T16:10:18.841Z,-11.00
2023-01-12T16:12:49.499Z,-10.91
2023-01-12T16:15:22.655Z,-10.82
2023-01-12T16:17:52.805Z,-10.74
2023-01-12T16:20:22.580Z,-10.65
2023-01-12T16:22:52.093Z,-10.54
2023-01-12T16:25:21.689Z,-10.45
2023-01-12T16:27:51.290Z,-10.33
2023-01-12T16:30:22.898Z,-10.23
2023-01-12T16:32:52.558Z,-10.12
2023-01-12T16:35:21.828Z,-10.03
2023-01-12T16:37:55.326Z,-9.93
2023-01-12T16:40:24.360Z,-9.87
2023-01-12T16:42:54.244Z,-9.81
2023-01-12T16:45:24.907Z,-9.75
2023-01-12T16:47:58.021Z,-9.63
2023-01-12T16:50:27.441Z,-9.57
2023-01-12T16:52:56.612Z,-9.52
2023-01-12T16:55:25.658Z,-9.44
2023-01-12T16:57:54.741Z,-9.36
2023-01-12T17:00:26.420Z,-9.30
2023-01-12T17:02:55.706Z,-9.15
2023-01-12T17:05:24.912Z,-9.16
2023-01-12T17:07:55.083Z,-9.17
2023-01-12T17:10:25.003Z,-9.15
2023-01-12T17:12:57.130Z,-9.03
2023-01-12T17:15:31.425Z,-8.96
2023-01-12T17:18:01.009Z,-8.85
2023-01-12T17:20:30.693Z,-8.88
2023-01-12T17:23:00.695Z,-8.82
2023-01-12T17:25:29.884Z,-8.59
2023-01-12T17:27:59.014Z,-8.60
2023-01-12T17:30:28.469Z,-8.62
2023-01-12T17:32:58.882Z,-8.59
2023-01-12T17:35:27.963Z,-8.68
2023-01-12T17:37:56.996Z,-8.70
2023-01-12T17:40:27.481Z,-8.69
2023-01-12T17:43:07.806Z,-8.55
2023-01-12T17:45:42.940Z,-8.52
2023-01-12T17:48:13.506Z,-8.47
2023-01-12T17:50:42.811Z,-8.49
2023-01-12T17:53:11.942Z,-8.50
2023-01-12T17:55:48.316Z,-8.52
2023-01-12T17:58:19.084Z,-8.51
2023-01-12T18:00:50.976Z,-8.51
2023-01-12T18:03:21.703Z,-8.53
2023-01-12T18:06:02.792Z,-8.53
2023-01-12T18:08:34.212Z,-8.53
2023-01-12T18:11:04.306Z,-8.52
2023-01-12T18:13:34.000Z,-8.51
2023-01-12T18:16:03.413Z,-8.50
2023-01-12T18:18:34.096Z,-8.48
2023-01-12T18:21:05.426Z,-8.44
2023-01-12T18:23:34.859Z,-8.42
2023-01-12T18:26:06.840Z,-8.42
2023-01-12T18:28:35.966Z,-8.42
2023-01-12T18:31:05.819Z,-8.40
2023-01-12T18:33:37.115Z,-8.37
2023-01-12T18:36:11.683Z,-8.35
2023-01-12T18:38:41.677Z,-8.32
2023-01-12T18:41:28.952Z,-8.21
2023-01-12T18:44:00.900Z,-8.15
2023-01-12T18:46:51.005Z,-8.19
2023-01-12T18:49:23.762Z,-8.18
2023-01-12T18:52:10.590Z,-8.16
2023-01-12T18:54:41.987Z,-8.17
2023-01-12T18:57:14.004Z,-8.15
2023-01-12T18:59:43.317Z,-8.13
2023-01-12T19:02:13.278Z,-8.10
2023-01-12T19:05:07.880Z,-8.08
2023-01-12T19:08:00.642Z,-8.09
2023-01-12T19:10:31.575Z,-8.06
2023-01-12T19:13:24.025Z,-8.06
2023-01-12T19:16:10.581Z,-8.04
2023-01-12T19:18:40.340Z,-8.02
2023-01-12T19:21:28.218Z,-8.06
2023-01-12T19:24:26.024Z,-8.03
2023-01-12T19:27:12.589Z,-8.03
2023-01-12T19:29:43.962Z,-8.04
2023-01-12T19:32:13.984Z,-8.03
2023-01-12T19:34:43.321Z,-8.03
2023-01-12T19:37:14.111Z,-8.01
2023-01-12T19:39:59.657Z,-7.99
2023-01-12T19:42:47.866Z,-7.98
2023-01-12T19:45:19.581Z,-7.94
2023-01-12T19:47:48.863Z,-7.96
2023-01-12T19:50:20.404Z,-7.98
2023-01-12T19:52:51.328Z,-7.97
2023-01-12T19:55:20.791Z,-7.95
2023-01-12T19:57:51.918Z,-7.93
2023-01-12T20:00:22.319Z,-7.94
2023-01-12T20:02:52.252Z,-7.93
2023-01-12T20:05:23.871Z,-7.93
2023-01-12T20:07:55.519Z,-7.87
2023-01-12T20:10:25.517Z,-7.86
2023-01-12T20:12:54.952Z,-7.87
2023-01-12T20:15:24.033Z,-7.86
2023-01-12T20:17:53.065Z,-7.87
2023-01-12T20:20:22.146Z,-7.88
2023-01-12T20:22:51.748Z,-7.86
2023-01-12T20:25:23.435Z,-7.85
2023-01-12T20:27:53.314Z,-7.83
2023-01-12T20:30:36.917Z,-7.77
2023-01-12T20:33:07.504Z,-7.77
2023-01-12T20:35:38.575Z,-7.77
2023-01-12T20:38:13.477Z,-7.78
2023-01-12T20:40:44.415Z,-7.76
2023-01-12T20:43:13.479Z,-7.76
2023-01-12T20:45:44.373Z,-7.73
2023-01-12T20:48:15.005Z,-7.71
2023-01-12T20:50:45.629Z,-7.70
2023-01-12T20:53:15.765Z,-7.67
2023-01-12T20:55:48.169Z,-7.69
2023-01-12T20:58:17.798Z,-7.68
2023-01-12T21:00:47.014Z,-7.70
2023-01-12T21:03:16.913Z,-7.67
2023-01-12T21:05:48.092Z,-7.63
2023-01-12T21:08:18.273Z,-7.62
2023-01-12T21:10:52.003Z,-7.63
2023-01-12T21:13:21.342Z,-7.58
2023-01-12T21:15:57.613Z,-7.56
2023-01-12T21:18:27.099Z,-7.59
2023-01-12T21:20:56.650Z,-7.59
2023-01-12T21:23:26.524Z,-7.57
2023-01-12T21:25:56.999Z,-7.58
2023-01-12T21:28:26.744Z,-7.57
2023-01-12T21:30:56.482Z,-7.53
2023-01-12T21:33:25.442Z,-7.55
2023-01-12T21:35:57.549Z,-7.52
2023-01-12T21:38:27.830Z,-7.52
2023-01-12T21:41:03.184Z,-7.51
2023-01-12T21:43:32.298Z,-7.51
2023-01-12T21:46:06.969Z,-7.51
2023-01-12T21:48:36.876Z,-7.48
2023-01-12T21:51:06.854Z,-7.49
2023-01-12T21:53:36.187Z,-7.46
2023-01-12T21:56:07.501Z,-7.45
2023-01-12T21:58:37.495Z,-7.42
2023-01-12T22:01:11.457Z,-7.42
2023-01-12T22:03:41.029Z,-7.42
2023-01-12T22:06:12.246Z,-7.40
2023-01-12T22:08:42.610Z,-7.38
2023-01-12T22:11:14.848Z,-7.39
2023-01-12T22:13:44.741Z,-7.37
2023-01-12T22:16:16.393Z,-7.39
2023-01-12T22:18:49.293Z,-7.38
2023-01-12T22:21:20.010Z,-7.36
2023-01-12T22:23:49.797Z,-7.35
2023-01-12T22:26:21.374Z,-7.33
2023-01-12T22:28:50.549Z,-7.34
2023-01-12T22:31:21.959Z,-7.34
2023-01-12T22:33:57.692Z,-7.33
2023-01-12T22:36:26.951Z,-7.28
2023-01-12T22:38:56.437Z,-7.28
2023-01-12T22:41:27.228Z,-7.32
2023-01-12T22:43:56.916Z,-7.28
2023-01-12T22:46:27.630Z,-7.29
2023-01-12T22:48:57.797Z,-7.29
2023-01-12T22:51:29.466Z,-7.28
2023-01-12T22:53:58.996Z,-7.25
2023-01-12T22:56:29.454Z,-7.24
2023-01-12T22:58:58.687Z,-7.24
2023-01-12T23:01:28.104Z,-7.25
2023-01-12T23:03:57.903Z,-7.24
2023-01-12T23:06:27.839Z,-7.24
2023-01-12T23:08:56.952Z,-7.22
2023-01-12T23:11:28.459Z,-7.18
2023-01-12T23:13:57.406Z,-7.18
2023-01-12T23:16:27.374Z,-7.21
2023-01-12T23:18:56.543Z,-7.18
2023-01-12T23:21:27.226Z,-7.18
2023-01-12T23:23:57.996Z,-7.17
2023-01-12T23:26:31.009Z,-7.16
2023-01-12T23:29:03.187Z,-7.15
2023-01-12T23:31:34.568Z,-7.15
2023-01-12T23:34:03.800Z,-7.12
2023-01-12T23:36:33.400Z,-7.06
2023-01-12T23:39:04.443Z,-7.04
2023-01-12T23:41:36.331Z,-7.04
2023-01-12T23:44:07.641Z,-7.05
2023-01-12T23:46:38.663Z,-7.05
2023-01-12T23:49:07.902Z,-7.04
2023-01-12T23:51:37.083Z,-7.05
2023-01-12T23:54:07.713Z,-7.04
2023-01-12T23:56:38.121Z,-7.02
2023-01-12T23:59:07.258Z,-7.02
